Terminal Aerodrome Forecast
Issued by NWS

Home | Current Version | Previous Version | Text Only | Print | Product List | Glossary On
Versions: 1 2 3 4 5 6 7 8 9 10 11 12 13
000
FTUS45 KGJT 211133
TAFTEX
TAF
KTEX 211133Z 2112/2212 VRB03KT P6SM SKC
     FM211500 24007KT P6SM SCT250
     FM212100 24012G29KT P6SM BKN200
     FM212300 21009KT P6SM BKN090
     FM220700 24010G27KT P6SM BKN060 WS020/23035KT
     FM221000 24013G32KT P6SM BKN060=

USA.gov is the U.S. government's official web portal to all federal, state and local government web resources and services.